createdAt,value
2023-05-08T00:01:11.448Z,21.40
2023-05-08T00:03:38.935Z,21.42
2023-05-08T00:06:06.503Z,21.40
2023-05-08T00:08:33.763Z,21.39
2023-05-08T00:11:00.955Z,21.45
2023-05-08T00:13:28.255Z,21.46
2023-05-08T00:15:55.487Z,21.47
2023-05-08T00:18:22.687Z,21.47
2023-05-08T00:20:49.896Z,21.46
2023-05-08T00:23:17.278Z,21.42
2023-05-08T00:25:44.475Z,21.39
2023-05-08T00:28:11.677Z,21.39
2023-05-08T00:30:38.880Z,21.37
2023-05-08T00:33:06.127Z,21.37
2023-05-08T00:35:33.608Z,21.33
2023-05-08T00:38:01.392Z,21.34
2023-05-08T00:40:28.654Z,21.34
2023-05-08T00:42:55.886Z,21.32
2023-05-08T00:45:23.055Z,21.38
2023-05-08T00:47:50.909Z,21.38
2023-05-08T00:50:18.901Z,21.33
2023-05-08T00:52:47.081Z,21.36
2023-05-08T00:55:14.417Z,21.29
2023-05-08T00:57:41.718Z,21.28
2023-05-08T01:00:10.630Z,21.27
2023-05-08T01:02:37.960Z,21.30
2023-05-08T01:05:05.843Z,21.26
2023-05-08T01:07:33.197Z,21.23
2023-05-08T01:10:00.372Z,21.23
2023-05-08T01:12:46.547Z,21.24
2023-05-08T01:15:24.373Z,21.25
2023-05-08T01:18:13.049Z,21.26
2023-05-08T01:20:59.596Z,21.22
2023-05-08T01:23:47.918Z,21.24
2023-05-08T01:26:47.939Z,21.24
2023-05-08T01:29:26.978Z,21.18
2023-05-08T01:32:12.871Z,21.22
2023-05-08T01:34:50.384Z,21.23
2023-05-08T01:37:23.853Z,21.23
2023-05-08T01:40:13.444Z,21.21
2023-05-08T01:42:50.835Z,21.17
2023-05-08T01:45:35.650Z,21.18
2023-05-08T01:48:10.825Z,21.22
2023-05-08T01:50:46.146Z,21.22
2023-05-08T01:53:33.895Z,21.17
2023-05-08T01:56:09.455Z,21.17
2023-05-08T01:58:38.349Z,21.17
2023-05-08T02:01:06.087Z,21.17
2023-05-08T02:03:35.607Z,21.18
2023-05-08T02:06:02.978Z,21.17
2023-05-08T02:08:30.715Z,21.16
2023-05-08T02:10:58.725Z,21.18
2023-05-08T02:13:26.331Z,21.18
2023-05-08T02:15:55.657Z,21.15
2023-05-08T02:18:24.301Z,21.18
2023-05-08T02:20:52.349Z,21.15
2023-05-08T02:23:20.644Z,21.15
2023-05-08T02:25:48.453Z,21.14
2023-05-08T02:28:18.920Z,21.10
2023-05-08T02:30:47.300Z,21.13
2023-05-08T02:33:15.212Z,21.11
2023-05-08T02:35:44.921Z,21.11
2023-05-08T02:38:13.068Z,21.11
2023-05-08T02:40:44.487Z,21.10
2023-05-08T02:43:11.705Z,21.09
2023-05-08T02:46:10.045Z,21.10
2023-05-08T02:48:57.356Z,21.11
2023-05-08T02:51:36.582Z,21.12
2023-05-08T02:54:14.657Z,21.11
2023-05-08T02:56:50.508Z,21.10
2023-05-08T02:59:20.521Z,21.09
2023-05-08T03:01:54.366Z,21.08
2023-05-08T03:04:37.873Z,21.08
2023-05-08T03:07:05.260Z,21.08
2023-05-08T03:09:44.604Z,21.04
2023-05-08T03:12:23.675Z,21.04
2023-05-08T03:15:04.778Z,21.06
2023-05-08T03:17:34.062Z,21.06
2023-05-08T03:20:05.656Z,21.07
2023-05-08T03:22:35.090Z,21.03
2023-05-08T03:25:04.882Z,21.00
2023-05-08T03:27:33.748Z,21.04
2023-05-08T03:30:03.295Z,21.05
2023-05-08T03:32:31.556Z,21.03
2023-05-08T03:35:02.636Z,21.03
2023-05-08T03:37:30.031Z,21.02
2023-05-08T03:39:57.520Z,21.03
2023-05-08T03:42:25.147Z,21.02
2023-05-08T03:44:53.245Z,21.04
2023-05-08T03:47:21.920Z,21.02
2023-05-08T03:49:50.351Z,21.02
2023-05-08T03:52:17.711Z,21.00
2023-05-08T03:54:45.032Z,21.01
2023-05-08T03:57:14.799Z,21.01
2023-05-08T04:00:01.574Z,20.99
2023-05-08T04:02:50.773Z,21.01
2023-05-08T04:05:26.105Z,20.99
2023-05-08T04:08:01.001Z,21.02
2023-05-08T04:10:32.136Z,21.01
2023-05-08T04:13:12.637Z,21.01
2023-05-08T04:15:48.427Z,20.97
2023-05-08T04:18:19.016Z,20.99
2023-05-08T04:20:48.747Z,21.00
2023-05-08T04:23:18.939Z,20.96
2023-05-08T04:25:47.683Z,20.96
2023-05-08T04:28:15.991Z,20.97
2023-05-08T04:30:43.392Z,20.96
2023-05-08T04:33:10.995Z,20.97
2023-05-08T04:35:38.234Z,20.93
2023-05-08T04:38:05.538Z,20.96
2023-05-08T04:40:32.750Z,21.01
2023-05-08T04:42:59.923Z,20.99
2023-05-08T04:45:27.261Z,21.00
2023-05-08T04:47:54.452Z,20.97
2023-05-08T04:50:21.641Z,20.99
2023-05-08T04:52:48.918Z,20.98
2023-05-08T04:55:16.166Z,20.97
2023-05-08T04:57:44.561Z,20.96
2023-05-08T05:00:12.391Z,20.99
2023-05-08T05:02:39.611Z,21.00
2023-05-08T05:05:07.600Z,21.03
2023-05-08T05:07:35.078Z,21.05
2023-05-08T05:10:02.317Z,21.03
2023-05-08T05:12:29.647Z,21.06
2023-05-08T05:14:56.975Z,21.05
2023-05-08T05:17:24.438Z,21.12
2023-05-08T05:19:53.527Z,21.20
2023-05-08T05:22:20.911Z,21.22
2023-05-08T05:24:48.112Z,21.24
2023-05-08T05:27:15.352Z,21.21
2023-05-08T05:29:42.515Z,21.24
2023-05-08T05:32:11.495Z,21.21
2023-05-08T05:34:41.491Z,21.20
2023-05-08T05:37:08.758Z,21.22
2023-05-08T05:39:37.742Z,21.23
2023-05-08T05:42:04.909Z,21.25
2023-05-08T05:44:32.080Z,21.21
2023-05-08T05:46:59.320Z,21.21
2023-05-08T05:49:26.700Z,21.21
2023-05-08T05:51:54.008Z,21.20
2023-05-08T05:54:21.376Z,21.17
2023-05-08T05:56:48.665Z,21.21
2023-05-08T05:59:18.472Z,21.18
2023-05-08T06:01:45.736Z,21.28
2023-05-08T06:04:13.055Z,21.37
2023-05-08T06:06:40.277Z,21.48
2023-05-08T06:09:07.465Z,21.57
2023-05-08T06:11:34.648Z,21.67
2023-05-08T06:14:01.846Z,21.78
2023-05-08T06:16:30.504Z,21.91
2023-05-08T06:18:57.977Z,21.99
2023-05-08T06:21:25.262Z,22.05
2023-05-08T06:23:52.678Z,22.13
2023-05-08T06:26:21.561Z,22.17
2023-05-08T06:28:50.549Z,22.25
2023-05-08T06:31:17.846Z,22.28
2023-05-08T06:33:48.397Z,22.32
2023-05-08T06:36:17.810Z,22.36
2023-05-08T06:38:45.101Z,22.38
2023-05-08T06:41:15.084Z,22.40
2023-05-08T06:43:43.174Z,22.48
2023-05-08T06:46:10.535Z,22.46
2023-05-08T06:48:37.813Z,22.30
2023-05-08T06:51:05.163Z,22.44
2023-05-08T06:53:32.466Z,22.36
2023-05-08T06:56:00.313Z,22.28
2023-05-08T06:58:27.790Z,22.19
2023-05-08T07:00:54.984Z,22.28
2023-05-08T07:03:22.654Z,22.44
2023-05-08T07:05:50.430Z,22.53
2023-05-08T07:08:17.617Z,22.44
2023-05-08T07:10:44.806Z,22.25
2023-05-08T07:13:12.074Z,22.20
2023-05-08T07:15:39.308Z,22.02
2023-05-08T07:18:07.092Z,21.94
2023-05-08T07:20:34.786Z,21.84
2023-05-08T07:23:02.068Z,21.85
2023-05-08T07:25:29.266Z,21.85
2023-05-08T07:27:56.478Z,21.95
2023-05-08T07:30:23.937Z,21.97
2023-05-08T07:32:51.274Z,21.94
2023-05-08T07:35:18.468Z,21.90
2023-05-08T07:37:45.785Z,21.87
2023-05-08T07:40:13.050Z,21.81
2023-05-08T07:42:42.251Z,21.75
2023-05-08T07:45:10.829Z,21.73
2023-05-08T07:47:38.744Z,21.71
2023-05-08T07:50:06.723Z,21.74
2023-05-08T07:52:33.918Z,21.76
2023-05-08T07:55:01.346Z,21.77
2023-05-08T07:57:28.753Z,21.79
2023-05-08T08:00:00.914Z,21.80
2023-05-08T08:02:28.397Z,21.83
2023-05-08T08:04:56.243Z,21.77
2023-05-08T08:07:23.765Z,21.72
2023-05-08T08:09:51.212Z,21.75
2023-05-08T08:12:18.628Z,21.73
2023-05-08T08:14:46.621Z,21.69
2023-05-08T08:17:14.126Z,21.68
2023-05-08T08:19:41.456Z,21.66
2023-05-08T08:22:09.073Z,21.65
2023-05-08T08:24:36.635Z,21.61
2023-05-08T08:27:04.212Z,21.66
2023-05-08T08:29:31.824Z,21.68
2023-05-08T08:31:59.073Z,21.67
2023-05-08T08:34:40.471Z,21.63
2023-05-08T08:37:09.954Z,21.60
2023-05-08T08:39:37.448Z,21.57
2023-05-08T08:42:05.036Z,21.59
2023-05-08T08:44:32.307Z,21.55
2023-05-08T08:47:00.535Z,21.58
2023-05-08T08:49:36.613Z,21.62
2023-05-08T08:52:11.895Z,21.58
2023-05-08T08:54:41.414Z,21.61
2023-05-08T08:57:11.641Z,21.67
2023-05-08T08:59:39.550Z,21.71
2023-05-08T09:02:12.658Z,21.74
2023-05-08T09:04:40.001Z,21.75
2023-05-08T09:07:08.634Z,21.72
2023-05-08T09:09:40.811Z,21.80
2023-05-08T09:12:08.866Z,21.85
2023-05-08T09:14:36.226Z,21.81
2023-05-08T09:17:03.526Z,21.79
2023-05-08T09:19:30.893Z,21.78
2023-05-08T09:22:01.546Z,21.74
2023-05-08T09:25:02.262Z,21.75
2023-05-08T09:27:32.466Z,21.83
2023-05-08T09:30:05.269Z,21.79
2023-05-08T09:32:33.969Z,21.79
2023-05-08T09:35:01.893Z,21.79
2023-05-08T09:37:30.032Z,21.77
2023-05-08T09:40:18.364Z,21.71
2023-05-08T09:42:46.333Z,21.72
2023-05-08T09:45:31.006Z,21.72
2023-05-08T09:47:58.592Z,21.73
2023-05-08T09:50:26.170Z,21.69
2023-05-08T09:52:53.582Z,21.74
2023-05-08T09:55:21.002Z,21.74
2023-05-08T09:57:59.068Z,21.74
2023-05-08T10:00:27.922Z,21.74
2023-05-08T10:02:57.721Z,21.74
2023-05-08T10:05:32.244Z,21.73
2023-05-08T10:08:17.546Z,21.70
2023-05-08T10:10:46.627Z,21.71
2023-05-08T10:13:14.084Z,21.72
2023-05-08T10:15:45.783Z,21.74
2023-05-08T10:18:13.278Z,21.71
2023-05-08T10:20:42.411Z,21.72
2023-05-08T10:23:14.080Z,21.72
2023-05-08T10:25:47.424Z,21.72
2023-05-08T10:28:32.808Z,21.71
2023-05-08T10:31:05.523Z,21.72
2023-05-08T10:33:35.395Z,21.70
2023-05-08T10:36:02.779Z,21.71
2023-05-08T10:38:30.634Z,21.81
2023-05-08T10:41:00.095Z,21.84
2023-05-08T10:43:27.676Z,21.66
2023-05-08T10:45:55.722Z,21.53
2023-05-08T10:48:28.242Z,21.56
2023-05-08T10:51:25.445Z,21.70
2023-05-08T10:54:05.762Z,21.74
2023-05-08T10:56:32.909Z,21.79
2023-05-08T10:59:00.196Z,21.72
2023-05-08T11:01:27.540Z,21.72
2023-05-08T11:03:57.850Z,21.70
2023-05-08T11:06:46.540Z,21.59
2023-05-08T11:09:21.961Z,21.59
2023-05-08T11:11:58.227Z,21.54
2023-05-08T11:14:26.114Z,21.53
2023-05-08T11:17:02.216Z,21.48
2023-05-08T11:19:29.696Z,21.40
2023-05-08T11:22:17.261Z,21.52
2023-05-08T11:24:54.536Z,21.51
2023-05-08T11:27:38.044Z,21.39
2023-05-08T11:30:21.461Z,21.41
2023-05-08T11:33:07.517Z,21.34
2023-05-08T11:35:53.196Z,21.28
2023-05-08T11:38:21.854Z,21.59
2023-05-08T11:40:59.301Z,21.60
2023-05-08T11:43:41.714Z,21.68
2023-05-08T11:46:18.222Z,21.79
2023-05-08T11:48:45.603Z,21.79
2023-05-08T11:51:13.918Z,21.96
2023-05-08T11:53:41.161Z,21.93
2023-05-08T11:56:11.403Z,21.87
2023-05-08T11:58:38.657Z,21.81
2023-05-08T12:01:06.183Z,21.61
2023-05-08T12:03:33.626Z,21.50
2023-05-08T12:06:00.954Z,21.46
2023-05-08T12:08:28.268Z,21.33
2023-05-08T12:10:56.962Z,21.27
2023-05-08T12:13:26.665Z,21.36
2023-05-08T12:15:58.633Z,21.37
2023-05-08T12:18:26.767Z,21.57
2023-05-08T12:20:57.872Z,21.54
2023-05-08T12:23:25.099Z,21.40
2023-05-08T12:25:55.115Z,21.40
2023-05-08T12:28:22.900Z,20.67
2023-05-08T12:30:50.433Z,20.38
2023-05-08T12:33:17.735Z,21.10
2023-05-08T12:35:45.065Z,21.52
2023-05-08T12:38:14.515Z,21.79
2023-05-08T12:40:47.663Z,21.92
2023-05-08T12:43:14.860Z,22.01
2023-05-08T12:45:42.952Z,22.06
2023-05-08T12:48:13.031Z,22.18
2023-05-08T12:50:42.568Z,22.19
2023-05-08T12:53:11.958Z,22.19
2023-05-08T12:55:40.917Z,22.20
2023-05-08T12:58:15.195Z,22.23
2023-05-08T13:00:45.183Z,22.25
2023-05-08T13:03:14.043Z,22.28
2023-05-08T13:05:43.283Z,22.31
2023-05-08T13:08:11.215Z,22.18
2023-05-08T13:10:51.910Z,22.10
2023-05-08T13:13:24.532Z,22.06
2023-05-08T13:15:53.328Z,22.05
2023-05-08T13:18:22.379Z,22.03
2023-05-08T13:20:49.730Z,22.02
2023-05-08T13:23:17.047Z,22.01
2023-05-08T13:25:44.335Z,22.01
2023-05-08T13:28:11.924Z,22.03
2023-05-08T13:30:39.371Z,22.11
2023-05-08T13:33:06.640Z,22.23
2023-05-08T13:35:34.172Z,22.30
2023-05-08T13:38:01.341Z,22.36
2023-05-08T13:40:28.738Z,22.40
2023-05-08T13:42:55.884Z,22.44
2023-05-08T13:45:23.069Z,22.47
2023-05-08T13:47:50.974Z,22.38
2023-05-08T13:50:19.520Z,22.45
2023-05-08T13:52:46.737Z,22.46
2023-05-08T13:55:14.292Z,22.50
2023-05-08T13:57:41.640Z,22.52
2023-05-08T14:00:09.381Z,22.55
2023-05-08T14:02:37.655Z,22.56
2023-05-08T14:05:09.849Z,22.60
2023-05-08T14:07:40.664Z,22.50
2023-05-08T14:10:09.475Z,22.53
2023-05-08T14:12:37.806Z,22.39
2023-05-08T14:15:08.449Z,22.36
2023-05-08T14:17:38.431Z,22.41
2023-05-08T14:20:08.702Z,22.37
2023-05-08T14:22:38.446Z,22.32
2023-05-08T14:25:07.647Z,22.34
2023-05-08T14:27:35.652Z,22.46
2023-05-08T14:30:04.079Z,22.51
2023-05-08T14:32:31.527Z,22.46
2023-05-08T14:34:58.838Z,22.55
2023-05-08T14:37:26.675Z,22.59
2023-05-08T14:39:56.382Z,22.50
2023-05-08T14:42:24.792Z,22.45
2023-05-08T14:44:53.235Z,22.53
2023-05-08T14:47:21.989Z,22.45
2023-05-08T14:49:49.769Z,22.34
2023-05-08T14:52:19.226Z,22.35
2023-05-08T14:54:53.877Z,22.23
2023-05-08T14:57:23.506Z,22.19
2023-05-08T14:59:55.278Z,22.26
2023-05-08T15:02:24.475Z,22.25
2023-05-08T15:04:53.480Z,21.88
2023-05-08T15:07:21.755Z,22.02
2023-05-08T15:09:49.127Z,22.25
2023-05-08T15:12:16.389Z,22.41
2023-05-08T15:14:43.755Z,22.48
2023-05-08T15:17:11.408Z,22.62
2023-05-08T15:19:38.630Z,22.59
2023-05-08T15:22:05.995Z,22.62
2023-05-08T15:24:33.312Z,22.69
2023-05-08T15:27:00.805Z,22.69
2023-05-08T15:29:28.217Z,22.75
2023-05-08T15:31:55.705Z,22.74
2023-05-08T15:34:24.540Z,22.64
2023-05-08T15:36:53.651Z,22.65
2023-05-08T15:39:21.091Z,22.55
2023-05-08T15:41:52.978Z,22.53
2023-05-08T15:44:20.194Z,22.54
2023-05-08T15:46:47.469Z,22.55
2023-05-08T15:49:14.874Z,22.55
2023-05-08T15:51:42.082Z,22.54
2023-05-08T15:54:09.661Z,22.53
2023-05-08T15:56:37.241Z,22.54
2023-05-08T15:59:04.526Z,22.53
2023-05-08T16:01:31.926Z,22.54
2023-05-08T16:03:59.126Z,22.53
2023-05-08T16:06:26.389Z,22.54
2023-05-08T16:08:53.725Z,22.54
2023-05-08T16:11:21.691Z,22.55
2023-05-08T16:13:49.186Z,22.54
2023-05-08T16:16:16.495Z,22.53
2023-05-08T16:18:43.733Z,22.54
2023-05-08T16:21:11.939Z,22.52
2023-05-08T16:23:39.607Z,22.53
2023-05-08T16:26:06.809Z,22.52
2023-05-08T16:28:33.993Z,22.53
2023-05-08T16:31:02.223Z,22.52
2023-05-08T16:33:29.481Z,22.52
2023-05-08T16:35:56.654Z,22.54
2023-05-08T16:38:23.814Z,22.54
2023-05-08T16:40:51.074Z,22.54
2023-05-08T16:43:18.236Z,22.55
2023-05-08T16:45:45.438Z,22.55
2023-05-08T16:48:12.669Z,22.56
2023-05-08T16:50:39.899Z,22.54
2023-05-08T16:53:07.065Z,22.56
2023-05-08T16:55:34.256Z,22.54
2023-05-08T16:58:01.493Z,22.55
2023-05-08T17:00:28.698Z,22.53
2023-05-08T17:02:56.261Z,22.55
2023-05-08T17:05:23.588Z,22.56
2023-05-08T17:07:50.928Z,22.55
2023-05-08T17:10:18.138Z,22.54
2023-05-08T17:12:45.390Z,22.56
2023-05-08T17:15:12.822Z,22.56
2023-05-08T17:17:40.202Z,22.56
2023-05-08T17:20:07.964Z,22.56
2023-05-08T17:22:35.392Z,22.55
2023-05-08T17:25:02.697Z,22.56
2023-05-08T17:27:29.854Z,22.56
2023-05-08T17:29:57.045Z,22.55
2023-05-08T17:32:24.308Z,22.56
2023-05-08T17:34:51.545Z,22.55
2023-05-08T17:37:18.773Z,22.54
2023-05-08T17:39:45.953Z,22.55
2023-05-08T17:42:13.158Z,22.55
2023-05-08T17:44:40.458Z,22.53
2023-05-08T17:47:09.096Z,22.52
2023-05-08T17:49:36.325Z,22.53
2023-05-08T17:52:04.837Z,22.53
2023-05-08T17:54:32.045Z,22.52
2023-05-08T17:56:59.219Z,22.50
2023-05-08T17:59:26.373Z,22.50
2023-05-08T18:01:54.498Z,22.49
2023-05-08T18:04:21.758Z,22.48
2023-05-08T18:06:49.477Z,22.49
2023-05-08T18:09:16.721Z,22.47
2023-05-08T18:11:43.949Z,22.47
2023-05-08T18:14:11.171Z,22.47
2023-05-08T18:16:38.464Z,22.48
2023-05-08T18:19:05.738Z,22.45
2023-05-08T18:21:33.766Z,22.47
2023-05-08T18:24:01.305Z,22.47
2023-05-08T18:26:28.501Z,22.45
2023-05-08T18:28:55.802Z,22.44
2023-05-08T18:31:23.110Z,22.43
2023-05-08T18:33:50.327Z,22.43
2023-05-08T18:36:17.526Z,22.40
2023-05-08T18:38:44.725Z,22.38
2023-05-08T18:41:11.951Z,22.38
2023-05-08T18:43:39.429Z,22.40
2023-05-08T18:46:13.599Z,22.39
2023-05-08T18:48:41.258Z,22.38
2023-05-08T18:51:08.611Z,22.38
2023-05-08T18:53:38.509Z,22.38
2023-05-08T18:56:08.946Z,22.39
2023-05-08T18:58:36.168Z,22.38
2023-05-08T19:01:03.383Z,22.38
2023-05-08T19:03:30.704Z,22.39
2023-05-08T19:05:59.035Z,22.38
2023-05-08T19:08:26.342Z,22.38
2023-05-08T19:10:56.016Z,22.39
2023-05-08T19:13:23.493Z,22.39
2023-05-08T19:15:50.841Z,22.39
2023-05-08T19:18:18.139Z,22.38
2023-05-08T19:20:45.356Z,22.40
2023-05-08T19:23:12.544Z,22.39
2023-05-08T19:25:40.008Z,22.38
2023-05-08T19:28:07.266Z,22.37
2023-05-08T19:30:34.491Z,22.38
2023-05-08T19:33:03.828Z,22.37
2023-05-08T19:35:31.073Z,22.35
2023-05-08T19:37:58.374Z,22.36
2023-05-08T19:40:25.535Z,22.35
2023-05-08T19:42:58.795Z,22.36
2023-05-08T19:45:25.936Z,22.35
2023-05-08T19:47:53.270Z,22.32
2023-05-08T19:50:20.584Z,22.30
2023-05-08T19:52:48.658Z,22.31
2023-05-08T19:55:16.781Z,22.30
2023-05-08T19:57:44.051Z,22.30
2023-05-08T20:00:12.016Z,22.28
2023-05-08T20:02:39.684Z,22.30
2023-05-08T20:07:37.433Z,22.26
2023-05-08T20:10:05.053Z,22.26
2023-05-08T20:12:32.436Z,22.27
2023-05-08T20:14:59.648Z,22.27
2023-05-08T20:17:26.976Z,22.23
2023-05-08T20:19:54.236Z,22.22
2023-05-08T20:22:21.464Z,22.23
2023-05-08T20:24:48.684Z,22.22
2023-05-08T20:27:16.147Z,22.23
2023-05-08T20:29:43.404Z,22.21
2023-05-08T20:32:14.688Z,22.23
2023-05-08T20:34:42.279Z,22.22
2023-05-08T20:37:09.672Z,22.21
2023-05-08T20:39:36.898Z,22.18
2023-05-08T20:42:04.156Z,22.19
2023-05-08T20:44:31.618Z,22.20
2023-05-08T20:46:58.834Z,22.19
2023-05-08T20:49:26.354Z,22.19
2023-05-08T20:51:53.610Z,22.18
2023-05-08T20:54:21.505Z,22.19
2023-05-08T20:56:48.726Z,22.16
2023-05-08T20:59:16.732Z,22.15
2023-05-08T21:01:43.993Z,22.15
2023-05-08T21:04:11.282Z,22.14
2023-05-08T21:06:38.575Z,22.11
2023-05-08T21:09:06.967Z,22.14
2023-05-08T21:11:34.607Z,22.14
2023-05-08T21:14:01.834Z,22.13
2023-05-08T21:16:29.049Z,22.15
2023-05-08T21:18:58.434Z,22.13
2023-05-08T21:21:25.882Z,22.14
2023-05-08T21:23:53.466Z,22.14
2023-05-08T21:26:23.346Z,22.04
2023-05-08T21:28:52.389Z,22.02
2023-05-08T21:31:19.759Z,21.97
2023-05-08T21:33:47.284Z,22.01
2023-05-08T21:36:14.581Z,22.05
2023-05-08T21:38:42.435Z,22.08
2023-05-08T21:41:09.982Z,22.08
2023-05-08T21:43:37.512Z,22.11
2023-05-08T21:46:06.209Z,22.09
2023-05-08T21:48:34.106Z,22.09
2023-05-08T21:51:01.850Z,22.09
2023-05-08T21:53:29.262Z,22.06
2023-05-08T21:55:56.460Z,22.09
2023-05-08T21:58:23.639Z,22.09
2023-05-08T22:00:51.293Z,22.14
2023-05-08T22:03:18.981Z,22.16
2023-05-08T22:05:46.252Z,22.18
2023-05-08T22:08:13.425Z,22.21
2023-05-08T22:10:40.798Z,22.18
2023-05-08T22:13:08.276Z,22.18
2023-05-08T22:15:35.942Z,22.17
2023-05-08T22:18:03.523Z,22.16
2023-05-08T22:20:31.106Z,22.18
2023-05-08T22:22:58.278Z,22.17
2023-05-08T22:25:27.062Z,22.18
2023-05-08T22:27:54.368Z,22.19
2023-05-08T22:30:21.609Z,22.16
2023-05-08T22:32:55.269Z,22.17
2023-05-08T22:35:27.596Z,22.15
2023-05-08T22:37:55.482Z,22.16
2023-05-08T22:40:23.066Z,22.17
2023-05-08T22:42:56.346Z,22.17
2023-05-08T22:45:24.213Z,22.17
2023-05-08T22:47:51.817Z,22.18
2023-05-08T22:50:19.289Z,22.17
2023-05-08T22:52:46.834Z,22.17
2023-05-08T22:55:15.533Z,22.16
2023-05-08T22:57:43.013Z,22.14
2023-05-08T23:00:10.764Z,22.06
2023-05-08T23:02:38.362Z,22.02
2023-05-08T23:05:06.671Z,22.03
2023-05-08T23:07:34.140Z,22.07
2023-05-08T23:10:01.475Z,22.13
2023-05-08T23:12:28.697Z,22.15
2023-05-08T23:14:55.920Z,22.16
2023-05-08T23:17:23.435Z,22.16
2023-05-08T23:19:50.966Z,22.18
2023-05-08T23:22:18.150Z,22.18
2023-05-08T23:24:45.373Z,22.17
2023-05-08T23:27:12.814Z,22.17
2023-05-08T23:29:40.272Z,22.24
2023-05-08T23:32:07.780Z,22.23
2023-05-08T23:34:34.986Z,22.22
2023-05-08T23:37:02.597Z,22.21
2023-05-08T23:39:30.111Z,22.17
2023-05-08T23:41:57.515Z,22.23
2023-05-08T23:44:24.966Z,22.23
2023-05-08T23:46:52.295Z,22.26
2023-05-08T23:49:19.490Z,22.25
2023-05-08T23:51:46.661Z,22.24
2023-05-08T23:54:13.860Z,22.24
2023-05-08T23:56:41.056Z,22.22
2023-05-08T23:59:08.240Z,22.23
